sensor_id;sensor_type;location;lat;lon;timestamp;temperature;humidity
39675;DHT22;27790;50.840;4.386;2022-09-09T00:04:41;17.20;95.60
39675;DHT22;27790;50.840;4.386;2022-09-09T00:07:20;17.20;95.60
39675;DHT22;27790;50.840;4.386;2022-09-09T00:09:49;17.20;95.40
39675;DHT22;27790;50.840;4.386;2022-09-09T00:15:11;17.20;95.50
39675;DHT22;27790;50.840;4.386;2022-09-09T00:20:43;17.00;95.70
39675;DHT22;27790;50.840;4.386;2022-09-09T00:28:27;16.90;96.00
39675;DHT22;27790;50.840;4.386;2022-09-09T00:31:04;16.90;96.10
39675;DHT22;27790;50.840;4.386;2022-09-09T00:33:34;16.90;96.00
39675;DHT22;27790;50.840;4.386;2022-09-09T00:36:00;17.00;96.10
39675;DHT22;27790;50.840;4.386;2022-09-09T00:38:36;17.00;96.00
39675;DHT22;27790;50.840;4.386;2022-09-09T00:43:53;17.10;95.80
39675;DHT22;27790;50.840;4.386;2022-09-09T00:57:14;17.30;95.50
39675;DHT22;27790;50.840;4.386;2022-09-09T00:59:46;17.30;95.40
39675;DHT22;27790;50.840;4.386;2022-09-09T01:02:47;17.30;95.60
39675;DHT22;27790;50.840;4.386;2022-09-09T01:08:05;17.30;95.50
39675;DHT22;27790;50.840;4.386;2022-09-09T01:10:49;17.40;95.50
39675;DHT22;27790;50.840;4.386;2022-09-09T01:13:24;17.30;95.60
39675;DHT22;27790;50.840;4.386;2022-09-09T01:15:51;17.40;95.60
39675;DHT22;27790;50.840;4.386;2022-09-09T01:18:21;17.40;95.60
39675;DHT22;27790;50.840;4.386;2022-09-09T01:28:46;17.40;95.40
39675;DHT22;27790;50.840;4.386;2022-09-09T01:31:18;17.40;95.50
39675;DHT22;27790;50.840;4.386;2022-09-09T01:33:45;17.30;95.70
39675;DHT22;27790;50.840;4.386;2022-09-09T01:38:50;17.20;96.00
39675;DHT22;27790;50.840;4.386;2022-09-09T01:41:16;17.10;96.00
39675;DHT22;27790;50.840;4.386;2022-09-09T01:43:41;17.10;96.30
39675;DHT22;27790;50.840;4.386;2022-09-09T01:46:07;17.10;96.50
39675;DHT22;27790;50.840;4.386;2022-09-09T01:48:33;17.00;96.40
39675;DHT22;27790;50.840;4.386;2022-09-09T01:50:59;17.10;96.50
39675;DHT22;27790;50.840;4.386;2022-09-09T01:53:24;17.10;96.50
39675;DHT22;27790;50.840;4.386;2022-09-09T02:07:00;17.00;96.70
39675;DHT22;27790;50.840;4.386;2022-09-09T02:09:26;17.00;97.00
39675;DHT22;27790;50.840;4.386;2022-09-09T02:12:05;17.00;96.80
39675;DHT22;27790;50.840;4.386;2022-09-09T02:14:38;17.00;96.80
39675;DHT22;27790;50.840;4.386;2022-09-09T02:17:11;17.00;96.80
39675;DHT22;27790;50.840;4.386;2022-09-09T02:19:49;16.90;96.80
39675;DHT22;27790;50.840;4.386;2022-09-09T02:22:19;16.90;96.80
39675;DHT22;27790;50.840;4.386;2022-09-09T02:24:47;17.00;96.90
39675;DHT22;27790;50.840;4.386;2022-09-09T02:27:16;17.00;96.80
39675;DHT22;27790;50.840;4.386;2022-09-09T02:29:44;17.00;96.80
39675;DHT22;27790;50.840;4.386;2022-09-09T02:32:14;17.00;96.70
39675;DHT22;27790;50.840;4.386;2022-09-09T02:34:49;17.00;96.80
39675;DHT22;27790;50.840;4.386;2022-09-09T02:37:22;17.00;96.80
39675;DHT22;27790;50.840;4.386;2022-09-09T02:39:50;17.00;96.80
39675;DHT22;27790;50.840;4.386;2022-09-09T02:42:16;17.00;96.70
39675;DHT22;27790;50.840;4.386;2022-09-09T02:44:42;17.00;96.50
39675;DHT22;27790;50.840;4.386;2022-09-09T02:58:10;17.00;96.60
39675;DHT22;27790;50.840;4.386;2022-09-09T03:00:37;17.00;96.40
39675;DHT22;27790;50.840;4.386;2022-09-09T03:03:06;17.00;96.40
39675;DHT22;27790;50.840;4.386;2022-09-09T03:05:32;17.00;96.50
39675;DHT22;27790;50.840;4.386;2022-09-09T03:07:58;17.00;96.50
39675;DHT22;27790;50.840;4.386;2022-09-09T03:10:23;17.00;96.50
39675;DHT22;27790;50.840;4.386;2022-09-09T03:12:49;17.00;96.40
39675;DHT22;27790;50.840;4.386;2022-09-09T03:15:16;17.10;96.40
39675;DHT22;27790;50.840;4.386;2022-09-09T03:17:42;17.00;96.40
39675;DHT22;27790;50.840;4.386;2022-09-09T03:20:08;17.10;96.40
39675;DHT22;27790;50.840;4.386;2022-09-09T03:22:34;17.00;96.50
39675;DHT22;27790;50.840;4.386;2022-09-09T03:25:01;17.00;96.50
39675;DHT22;27790;50.840;4.386;2022-09-09T03:27:28;17.00;96.50
39675;DHT22;27790;50.840;4.386;2022-09-09T03:29:54;16.90;96.50
39675;DHT22;27790;50.840;4.386;2022-09-09T03:32:19;16.90;96.50
39675;DHT22;27790;50.840;4.386;2022-09-09T03:34:48;16.90;96.60
39675;DHT22;27790;50.840;4.386;2022-09-09T03:37:15;17.00;96.60
39675;DHT22;27790;50.840;4.386;2022-09-09T03:39:41;17.00;96.60
39675;DHT22;27790;50.840;4.386;2022-09-09T03:42:07;17.00;96.60
39675;DHT22;27790;50.840;4.386;2022-09-09T03:44:32;16.90;96.60
39675;DHT22;27790;50.840;4.386;2022-09-09T03:46:58;16.90;96.60
39675;DHT22;27790;50.840;4.386;2022-09-09T03:49:26;16.90;96.80
39675;DHT22;27790;50.840;4.386;2022-09-09T03:51:54;16.90;96.80
39675;DHT22;27790;50.840;4.386;2022-09-09T03:54:22;16.90;96.80
39675;DHT22;27790;50.840;4.386;2022-09-09T03:56:48;16.80;96.80
39675;DHT22;27790;50.840;4.386;2022-09-09T03:59:13;16.80;96.80
39675;DHT22;27790;50.840;4.386;2022-09-09T04:01:39;16.80;96.80
39675;DHT22;27790;50.840;4.386;2022-09-09T04:04:05;16.90;96.70
39675;DHT22;27790;50.840;4.386;2022-09-09T04:06:31;16.90;96.60
39675;DHT22;27790;50.840;4.386;2022-09-09T04:08:56;17.00;96.40
39675;DHT22;27790;50.840;4.386;2022-09-09T04:11:22;17.10;96.30
39675;DHT22;27790;50.840;4.386;2022-09-09T04:13:48;17.10;96.30
39675;DHT22;27790;50.840;4.386;2022-09-09T04:16:14;17.20;96.20
39675;DHT22;27790;50.840;4.386;2022-09-09T04:18:40;17.10;96.10
39675;DHT22;27790;50.840;4.386;2022-09-09T04:21:06;17.10;96.20
39675;DHT22;27790;50.840;4.386;2022-09-09T04:23:32;17.10;96.20
39675;DHT22;27790;50.840;4.386;2022-09-09T04:26:00;17.10;96.20
39675;DHT22;27790;50.840;4.386;2022-09-09T04:28:30;17.10;96.10
39675;DHT22;27790;50.840;4.386;2022-09-09T04:30:56;17.00;96.20
39675;DHT22;27790;50.840;4.386;2022-09-09T04:33:24;17.00;96.30
39675;DHT22;27790;50.840;4.386;2022-09-09T04:35:52;17.00;96.40
39675;DHT22;27790;50.840;4.386;2022-09-09T04:38:19;16.90;96.40
39675;DHT22;27790;50.840;4.386;2022-09-09T04:40:49;16.80;96.40
39675;DHT22;27790;50.840;4.386;2022-09-09T04:43:15;16.80;96.60
39675;DHT22;27790;50.840;4.386;2022-09-09T04:45:41;16.80;96.60
39675;DHT22;27790;50.840;4.386;2022-09-09T04:48:07;16.90;96.60
39675;DHT22;27790;50.840;4.386;2022-09-09T04:50:34;16.90;96.40
39675;DHT22;27790;50.840;4.386;2022-09-09T04:53:02;16.90;96.40
39675;DHT22;27790;50.840;4.386;2022-09-09T04:55:27;16.90;96.40
39675;DHT22;27790;50.840;4.386;2022-09-09T04:57:53;16.80;96.30
39675;DHT22;27790;50.840;4.386;2022-09-09T05:00:19;16.80;96.40
39675;DHT22;27790;50.840;4.386;2022-09-09T05:02:44;16.80;96.50
39675;DHT22;27790;50.840;4.386;2022-09-09T05:05:10;16.80;96.40
39675;DHT22;27790;50.840;4.386;2022-09-09T05:07:37;16.80;96.40
39675;DHT22;27790;50.840;4.386;2022-09-09T05:10:03;16.80;96.30
39675;DHT22;27790;50.840;4.386;2022-09-09T05:12:29;16.90;96.30
39675;DHT22;27790;50.840;4.386;2022-09-09T05:14:56;16.80;96.20
39675;DHT22;27790;50.840;4.386;2022-09-09T05:17:22;16.80;96.20
39675;DHT22;27790;50.840;4.386;2022-09-09T05:19:47;16.90;95.90
39675;DHT22;27790;50.840;4.386;2022-09-09T05:22:17;17.00;95.90
39675;DHT22;27790;50.840;4.386;2022-09-09T05:24:43;17.10;95.70
39675;DHT22;27790;50.840;4.386;2022-09-09T05:27:09;17.20;95.60
39675;DHT22;27790;50.840;4.386;2022-09-09T05:29:37;17.20;95.50
39675;DHT22;27790;50.840;4.386;2022-09-09T05:32:04;17.30;95.20
39675;DHT22;27790;50.840;4.386;2022-09-09T05:34:29;17.40;95.30
39675;DHT22;27790;50.840;4.386;2022-09-09T05:36:55;17.50;95.10
39675;DHT22;27790;50.840;4.386;2022-09-09T05:39:21;17.50;94.80
39675;DHT22;27790;50.840;4.386;2022-09-09T05:41:46;17.60;94.80
39675;DHT22;27790;50.840;4.386;2022-09-09T05:44:12;17.60;94.80
39675;DHT22;27790;50.840;4.386;2022-09-09T05:46:39;17.60;94.60
39675;DHT22;27790;50.840;4.386;2022-09-09T05:49:05;17.70;94.60
39675;DHT22;27790;50.840;4.386;2022-09-09T05:51:31;17.70;94.70
39675;DHT22;27790;50.840;4.386;2022-09-09T05:53:58;17.70;94.60
39675;DHT22;27790;50.840;4.386;2022-09-09T05:56:25;17.70;94.50
39675;DHT22;27790;50.840;4.386;2022-09-09T05:58:52;17.70;94.60
39675;DHT22;27790;50.840;4.386;2022-09-09T06:01:24;17.70;94.60
39675;DHT22;27790;50.840;4.386;2022-09-09T06:03:51;17.70;94.60
39675;DHT22;27790;50.840;4.386;2022-09-09T06:06:20;17.80;94.50
39675;DHT22;27790;50.840;4.386;2022-09-09T06:08:46;17.90;94.10
39675;DHT22;27790;50.840;4.386;2022-09-09T06:11:31;17.90;94.00
39675;DHT22;27790;50.840;4.386;2022-09-09T06:13:57;18.00;93.90
39675;DHT22;27790;50.840;4.386;2022-09-09T06:16:25;18.00;93.70
39675;DHT22;27790;50.840;4.386;2022-09-09T06:18:52;18.10;93.70
39675;DHT22;27790;50.840;4.386;2022-09-09T06:21:28;18.20;93.60
39675;DHT22;27790;50.840;4.386;2022-09-09T06:23:55;18.30;93.40
39675;DHT22;27790;50.840;4.386;2022-09-09T06:26:35;18.40;93.10
39675;DHT22;27790;50.840;4.386;2022-09-09T06:29:03;18.50;92.80
39675;DHT22;27790;50.840;4.386;2022-09-09T06:31:31;18.60;92.80
39675;DHT22;27790;50.840;4.386;2022-09-09T06:33:58;18.60;92.30
39675;DHT22;27790;50.840;4.386;2022-09-09T06:36:35;18.80;92.30
39675;DHT22;27790;50.840;4.386;2022-09-09T06:39:02;18.80;92.20
39675;DHT22;27790;50.840;4.386;2022-09-09T06:41:30;18.80;92.20
39675;DHT22;27790;50.840;4.386;2022-09-09T06:43:56;18.70;92.30
39675;DHT22;27790;50.840;4.386;2022-09-09T06:46:27;18.80;92.30
39675;DHT22;27790;50.840;4.386;2022-09-09T06:48:53;18.60;92.40
39675;DHT22;27790;50.840;4.386;2022-09-09T06:51:23;18.60;92.50
39675;DHT22;27790;50.840;4.386;2022-09-09T06:53:54;18.50;92.50
39675;DHT22;27790;50.840;4.386;2022-09-09T06:58:49;18.60;92.50
39675;DHT22;27790;50.840;4.386;2022-09-09T07:01:17;18.80;92.40
39675;DHT22;27790;50.840;4.386;2022-09-09T07:03:47;18.90;92.10
39675;DHT22;27790;50.840;4.386;2022-09-09T07:06:18;18.90;92.00
39675;DHT22;27790;50.840;4.386;2022-09-09T07:08:52;18.90;91.90
39675;DHT22;27790;50.840;4.386;2022-09-09T07:11:19;18.90;91.80
39675;DHT22;27790;50.840;4.386;2022-09-09T07:13:45;19.00;91.80
39675;DHT22;27790;50.840;4.386;2022-09-09T07:16:14;19.00;91.80
39675;DHT22;27790;50.840;4.386;2022-09-09T07:18:41;19.10;92.00
39675;DHT22;27790;50.840;4.386;2022-09-09T07:21:08;19.10;91.70
39675;DHT22;27790;50.840;4.386;2022-09-09T07:23:34;19.10;91.30
39675;DHT22;27790;50.840;4.386;2022-09-09T07:26:11;19.00;91.50
39675;DHT22;27790;50.840;4.386;2022-09-09T07:28:38;19.00;91.60
39675;DHT22;27790;50.840;4.386;2022-09-09T07:31:04;18.90;91.60
39675;DHT22;27790;50.840;4.386;2022-09-09T07:33:32;19.00;91.80
39675;DHT22;27790;50.840;4.386;2022-09-09T07:36:05;19.00;91.80
39675;DHT22;27790;50.840;4.386;2022-09-09T07:38:31;18.90;91.80
39675;DHT22;27790;50.840;4.386;2022-09-09T07:41:05;19.00;91.70
39675;DHT22;27790;50.840;4.386;2022-09-09T07:43:31;18.90;91.90
39675;DHT22;27790;50.840;4.386;2022-09-09T07:45:59;18.80;92.50
39675;DHT22;27790;50.840;4.386;2022-09-09T07:48:27;18.80;93.00
39675;DHT22;27790;50.840;4.386;2022-09-09T07:51:01;18.70;92.90
39675;DHT22;27790;50.840;4.386;2022-09-09T07:53:28;18.70;92.80
39675;DHT22;27790;50.840;4.386;2022-09-09T07:55:53;18.80;92.90
39675;DHT22;27790;50.840;4.386;2022-09-09T07:58:21;18.90;92.90
39675;DHT22;27790;50.840;4.386;2022-09-09T08:00:46;18.90;92.90
39675;DHT22;27790;50.840;4.386;2022-09-09T08:03:12;18.90;93.10
39675;DHT22;27790;50.840;4.386;2022-09-09T08:05:37;19.00;92.50
39675;DHT22;27790;50.840;4.386;2022-09-09T08:08:04;19.20;92.40
39675;DHT22;27790;50.840;4.386;2022-09-09T08:10:30;19.50;92.00
39675;DHT22;27790;50.840;4.386;2022-09-09T08:12:55;20.30;91.50
39675;DHT22;27790;50.840;4.386;2022-09-09T08:15:21;21.20;90.20
39675;DHT22;27790;50.840;4.386;2022-09-09T08:17:47;21.30;88.60
39675;DHT22;27790;50.840;4.386;2022-09-09T08:20:12;21.40;88.10
39675;DHT22;27790;50.840;4.386;2022-09-09T08:22:38;21.20;87.80
39675;DHT22;27790;50.840;4.386;2022-09-09T08:25:04;20.90;88.20
39675;DHT22;27790;50.840;4.386;2022-09-09T08:27:31;20.80;89.40
39675;DHT22;27790;50.840;4.386;2022-09-09T08:29:58;20.70;89.60
39675;DHT22;27790;50.840;4.386;2022-09-09T08:32:24;20.50;90.10
39675;DHT22;27790;50.840;4.386;2022-09-09T08:34:49;20.30;90.00
39675;DHT22;27790;50.840;4.386;2022-09-09T08:37:16;20.20;90.10
39675;DHT22;27790;50.840;4.386;2022-09-09T08:39:42;20.10;90.50
39675;DHT22;27790;50.840;4.386;2022-09-09T08:42:27;20.10;90.80
39675;DHT22;27790;50.840;4.386;2022-09-09T08:47:46;20.10;90.80
39675;DHT22;27790;50.840;4.386;2022-09-09T08:50:21;19.90;91.20
39675;DHT22;27790;50.840;4.386;2022-09-09T08:52:55;19.70;91.60
39675;DHT22;27790;50.840;4.386;2022-09-09T08:58:30;19.60;91.90
39675;DHT22;27790;50.840;4.386;2022-09-09T09:09:21;19.80;91.50
39675;DHT22;27790;50.840;4.386;2022-09-09T09:11:51;19.70;91.80
39675;DHT22;27790;50.840;4.386;2022-09-09T09:14:24;19.60;92.50
39675;DHT22;27790;50.840;4.386;2022-09-09T09:19:29;19.40;92.70
39675;DHT22;27790;50.840;4.386;2022-09-09T09:22:10;19.30;92.50
39675;DHT22;27790;50.840;4.386;2022-09-09T09:27:35;19.20;93.10
39675;DHT22;27790;50.840;4.386;2022-09-09T09:32:35;19.20;93.20
39675;DHT22;27790;50.840;4.386;2022-09-09T09:35:06;19.10;93.10
39675;DHT22;27790;50.840;4.386;2022-09-09T09:37:35;18.90;93.70
39675;DHT22;27790;50.840;4.386;2022-09-09T09:40:15;18.90;94.10
39675;DHT22;27790;50.840;4.386;2022-09-09T09:43:16;18.80;93.80
39675;DHT22;27790;50.840;4.386;2022-09-09T09:45:44;18.90;93.70
39675;DHT22;27790;50.840;4.386;2022-09-09T09:48:12;19.00;93.70
39675;DHT22;27790;50.840;4.386;2022-09-09T09:53:41;19.30;93.70
39675;DHT22;27790;50.840;4.386;2022-09-09T09:56:09;19.50;93.60
39675;DHT22;27790;50.840;4.386;2022-09-09T09:58:47;19.60;92.60
39675;DHT22;27790;50.840;4.386;2022-09-09T10:01:24;19.50;92.90
39675;DHT22;27790;50.840;4.386;2022-09-09T10:03:57;19.50;92.70
39675;DHT22;27790;50.840;4.386;2022-09-09T10:09:02;19.60;92.90
39675;DHT22;27790;50.840;4.386;2022-09-09T10:11:43;19.50;92.80
39675;DHT22;27790;50.840;4.386;2022-09-09T10:19:34;19.20;93.10
39675;DHT22;27790;50.840;4.386;2022-09-09T10:24:43;19.10;93.40
39675;DHT22;27790;50.840;4.386;2022-09-09T10:35:36;19.30;93.10
39675;DHT22;27790;50.840;4.386;2022-09-09T10:38:13;19.60;92.60
39675;DHT22;27790;50.840;4.386;2022-09-09T10:48:48;19.90;92.30
39675;DHT22;27790;50.840;4.386;2022-09-09T10:51:33;20.10;91.90
39675;DHT22;27790;50.840;4.386;2022-09-09T10:56:58;20.50;91.50
39675;DHT22;27790;50.840;4.386;2022-09-09T10:59:33;20.60;91.40
39675;DHT22;27790;50.840;4.386;2022-09-09T11:02:11;20.70;91.30
39675;DHT22;27790;50.840;4.386;2022-09-09T11:05:35;20.90;90.90
39675;DHT22;27790;50.840;4.386;2022-09-09T11:08:26;20.90;91.10
39675;DHT22;27790;50.840;4.386;2022-09-09T11:13:23;21.10;90.50
39675;DHT22;27790;50.840;4.386;2022-09-09T11:15:57;21.20;90.00
39675;DHT22;27790;50.840;4.386;2022-09-09T11:18:28;21.20;89.10
39675;DHT22;27790;50.840;4.386;2022-09-09T11:21:00;21.20;90.00
39675;DHT22;27790;50.840;4.386;2022-09-09T11:26:03;21.10;89.10
39675;DHT22;27790;50.840;4.386;2022-09-09T11:28:53;21.10;89.30
39675;DHT22;27790;50.840;4.386;2022-09-09T11:36:59;21.10;89.90
39675;DHT22;27790;50.840;4.386;2022-09-09T11:39:49;21.10;89.30
39675;DHT22;27790;50.840;4.386;2022-09-09T11:42:19;21.00;90.10
39675;DHT22;27790;50.840;4.386;2022-09-09T11:44:46;20.90;90.00
39675;DHT22;27790;50.840;4.386;2022-09-09T11:49:52;21.10;90.00
39675;DHT22;27790;50.840;4.386;2022-09-09T11:52:25;21.10;89.10
39675;DHT22;27790;50.840;4.386;2022-09-09T11:55:24;21.10;89.60
39675;DHT22;27790;50.840;4.386;2022-09-09T12:02:59;20.90;90.30
39675;DHT22;27790;50.840;4.386;2022-09-09T12:05:37;20.90;90.20
39675;DHT22;27790;50.840;4.386;2022-09-09T12:08:04;21.00;90.20
39675;DHT22;27790;50.840;4.386;2022-09-09T12:10:33;20.90;90.40
39675;DHT22;27790;50.840;4.386;2022-09-09T12:15:53;20.70;90.50
39675;DHT22;27790;50.840;4.386;2022-09-09T12:18:33;20.60;90.60
39675;DHT22;27790;50.840;4.386;2022-09-09T12:21:16;20.60;90.80
39675;DHT22;27790;50.840;4.386;2022-09-09T12:23:55;20.50;90.60
39675;DHT22;27790;50.840;4.386;2022-09-09T12:26:34;20.40;90.90
39675;DHT22;27790;50.840;4.386;2022-09-09T12:29:09;20.40;91.00
39675;DHT22;27790;50.840;4.386;2022-09-09T12:36:58;21.00;90.50
39675;DHT22;27790;50.840;4.386;2022-09-09T12:39:34;21.10;90.20
39675;DHT22;27790;50.840;4.386;2022-09-09T12:42:01;21.20;90.00
39675;DHT22;27790;50.840;4.386;2022-09-09T12:44:29;21.40;88.90
39675;DHT22;27790;50.840;4.386;2022-09-09T12:46:58;21.40;89.20
39675;DHT22;27790;50.840;4.386;2022-09-09T12:49:32;21.30;88.80
39675;DHT22;27790;50.840;4.386;2022-09-09T12:52:05;21.50;89.00
39675;DHT22;27790;50.840;4.386;2022-09-09T12:54:34;21.60;88.90
39675;DHT22;27790;50.840;4.386;2022-09-09T12:57:00;21.80;87.50
39675;DHT22;27790;50.840;4.386;2022-09-09T12:59:35;21.70;86.90
39675;DHT22;27790;50.840;4.386;2022-09-09T13:02:01;21.90;86.50
39675;DHT22;27790;50.840;4.386;2022-09-09T13:04:27;22.00;87.00
39675;DHT22;27790;50.840;4.386;2022-09-09T13:06:53;22.10;85.50
39675;DHT22;27790;50.840;4.386;2022-09-09T13:09:19;22.10;86.40
39675;DHT22;27790;50.840;4.386;2022-09-09T13:11:51;22.00;85.50
39675;DHT22;27790;50.840;4.386;2022-09-09T13:14:19;21.90;86.50
39675;DHT22;27790;50.840;4.386;2022-09-09T13:16:58;21.90;86.80
39675;DHT22;27790;50.840;4.386;2022-09-09T13:19:24;21.90;87.00
39675;DHT22;27790;50.840;4.386;2022-09-09T13:21:54;22.00;86.40
39675;DHT22;27790;50.840;4.386;2022-09-09T13:24:33;21.90;86.80
39675;DHT22;27790;50.840;4.386;2022-09-09T13:27:02;21.90;87.00
39675;DHT22;27790;50.840;4.386;2022-09-09T13:29:29;21.90;86.60
39675;DHT22;27790;50.840;4.386;2022-09-09T13:32:12;21.80;86.50
39675;DHT22;27790;50.840;4.386;2022-09-09T13:34:54;21.90;87.70
39675;DHT22;27790;50.840;4.386;2022-09-09T13:37:33;22.10;86.70
39675;DHT22;27790;50.840;4.386;2022-09-09T13:40:00;22.40;85.60
39675;DHT22;27790;50.840;4.386;2022-09-09T13:42:29;22.40;85.30
39675;DHT22;27790;50.840;4.386;2022-09-09T13:44:56;22.50;84.70
39675;DHT22;27790;50.840;4.386;2022-09-09T13:47:30;22.50;83.20
39675;DHT22;27790;50.840;4.386;2022-09-09T13:49:56;22.60;83.30
39675;DHT22;27790;50.840;4.386;2022-09-09T13:52:22;22.70;83.20
39675;DHT22;27790;50.840;4.386;2022-09-09T13:54:49;22.70;83.30
39675;DHT22;27790;50.840;4.386;2022-09-09T13:57:23;22.70;83.00
39675;DHT22;27790;50.840;4.386;2022-09-09T13:59:51;22.70;82.70
39675;DHT22;27790;50.840;4.386;2022-09-09T14:02:17;22.70;82.10
39675;DHT22;27790;50.840;4.386;2022-09-09T14:04:43;22.60;83.20
39675;DHT22;27790;50.840;4.386;2022-09-09T14:07:18;22.70;82.60
39675;DHT22;27790;50.840;4.386;2022-09-09T14:09:44;22.80;82.60
39675;DHT22;27790;50.840;4.386;2022-09-09T14:12:15;22.80;83.10
39675;DHT22;27790;50.840;4.386;2022-09-09T14:14:41;22.70;82.90
39675;DHT22;27790;50.840;4.386;2022-09-09T14:17:08;22.50;82.80
39675;DHT22;27790;50.840;4.386;2022-09-09T14:19:34;22.40;83.90
39675;DHT22;27790;50.840;4.386;2022-09-09T14:22:00;22.30;84.30
39675;DHT22;27790;50.840;4.386;2022-09-09T14:24:26;22.10;85.30
39675;DHT22;27790;50.840;4.386;2022-09-09T14:26:53;22.00;85.60
39675;DHT22;27790;50.840;4.386;2022-09-09T14:29:18;21.90;85.60
39675;DHT22;27790;50.840;4.386;2022-09-09T14:31:44;21.80;85.40
39675;DHT22;27790;50.840;4.386;2022-09-09T14:34:10;21.80;86.40
39675;DHT22;27790;50.840;4.386;2022-09-09T14:36:36;21.90;85.80
39675;DHT22;27790;50.840;4.386;2022-09-09T14:39:02;22.00;85.50
39675;DHT22;27790;50.840;4.386;2022-09-09T14:41:29;22.00;85.30
39675;DHT22;27790;50.840;4.386;2022-09-09T14:43:55;21.90;86.10
39675;DHT22;27790;50.840;4.386;2022-09-09T14:46:21;21.80;86.50
39675;DHT22;27790;50.840;4.386;2022-09-09T14:48:47;21.70;86.50
39675;DHT22;27790;50.840;4.386;2022-09-09T14:51:22;21.80;86.20
39675;DHT22;27790;50.840;4.386;2022-09-09T14:53:54;21.80;86.60
39675;DHT22;27790;50.840;4.386;2022-09-09T14:56:23;21.90;86.20
39675;DHT22;27790;50.840;4.386;2022-09-09T14:58:49;21.80;84.90
39675;DHT22;27790;50.840;4.386;2022-09-09T15:01:18;21.80;84.30
39675;DHT22;27790;50.840;4.386;2022-09-09T15:03:53;21.80;84.50
39675;DHT22;27790;50.840;4.386;2022-09-09T15:06:19;21.80;84.80
39675;DHT22;27790;50.840;4.386;2022-09-09T15:08:46;21.80;84.50
39675;DHT22;27790;50.840;4.386;2022-09-09T15:11:14;21.80;83.70
39675;DHT22;27790;50.840;4.386;2022-09-09T15:13:41;21.80;84.10
39675;DHT22;27790;50.840;4.386;2022-09-09T15:16:10;21.90;84.70
39675;DHT22;27790;50.840;4.386;2022-09-09T15:18:36;21.80;84.20
39675;DHT22;27790;50.840;4.386;2022-09-09T15:21:03;21.80;84.20
39675;DHT22;27790;50.840;4.386;2022-09-09T15:23:32;21.70;84.70
39675;DHT22;27790;50.840;4.386;2022-09-09T15:25:57;21.70;84.80
39675;DHT22;27790;50.840;4.386;2022-09-09T15:28:23;21.70;84.90
39675;DHT22;27790;50.840;4.386;2022-09-09T15:30:53;21.70;84.50
39675;DHT22;27790;50.840;4.386;2022-09-09T15:33:20;21.70;84.50
39675;DHT22;27790;50.840;4.386;2022-09-09T15:35:46;21.50;85.90
39675;DHT22;27790;50.840;4.386;2022-09-09T15:38:12;21.40;85.50
39675;DHT22;27790;50.840;4.386;2022-09-09T15:40:41;21.30;86.10
39675;DHT22;27790;50.840;4.386;2022-09-09T15:43:07;21.30;86.60
39675;DHT22;27790;50.840;4.386;2022-09-09T15:45:35;21.20;86.80
39675;DHT22;27790;50.840;4.386;2022-09-09T15:48:01;21.30;86.80
39675;DHT22;27790;50.840;4.386;2022-09-09T15:50:27;21.40;87.00
39675;DHT22;27790;50.840;4.386;2022-09-09T15:52:56;21.50;87.60
39675;DHT22;27790;50.840;4.386;2022-09-09T15:55:22;21.60;87.90
39675;DHT22;27790;50.840;4.386;2022-09-09T15:57:49;21.80;87.20
39675;DHT22;27790;50.840;4.386;2022-09-09T16:00:15;21.70;86.50
39675;DHT22;27790;50.840;4.386;2022-09-09T16:02:41;21.60;86.00
39675;DHT22;27790;50.840;4.386;2022-09-09T16:05:08;21.50;87.10
39675;DHT22;27790;50.840;4.386;2022-09-09T16:07:33;21.40;87.30
39675;DHT22;27790;50.840;4.386;2022-09-09T16:10:00;21.40;87.30
39675;DHT22;27790;50.840;4.386;2022-09-09T16:12:26;21.30;88.00
39675;DHT22;27790;50.840;4.386;2022-09-09T16:14:51;21.30;88.00
39675;DHT22;27790;50.840;4.386;2022-09-09T16:17:17;21.30;87.90
39675;DHT22;27790;50.840;4.386;2022-09-09T16:19:44;21.20;88.60
39675;DHT22;27790;50.840;4.386;2022-09-09T16:22:11;21.10;88.60
39675;DHT22;27790;50.840;4.386;2022-09-09T16:24:36;21.00;89.00
39675;DHT22;27790;50.840;4.386;2022-09-09T16:27:02;21.00;89.20
39675;DHT22;27790;50.840;4.386;2022-09-09T16:29:28;21.00;89.40
39675;DHT22;27790;50.840;4.386;2022-09-09T16:31:54;20.90;90.00
39675;DHT22;27790;50.840;4.386;2022-09-09T16:34:20;20.70;90.70
39675;DHT22;27790;50.840;4.386;2022-09-09T16:36:47;20.50;90.40
39675;DHT22;27790;50.840;4.386;2022-09-09T16:39:15;20.30;90.30
39675;DHT22;27790;50.840;4.386;2022-09-09T16:41:42;20.10;90.80
39675;DHT22;27790;50.840;4.386;2022-09-09T16:44:10;20.10;91.40
39675;DHT22;27790;50.840;4.386;2022-09-09T16:46:38;20.00;91.30
39675;DHT22;27790;50.840;4.386;2022-09-09T16:49:06;20.00;91.80
39675;DHT22;27790;50.840;4.386;2022-09-09T16:51:41;20.00;92.00
39675;DHT22;27790;50.840;4.386;2022-09-09T16:54:08;20.10;91.80
39675;DHT22;27790;50.840;4.386;2022-09-09T16:56:40;20.20;91.90
39675;DHT22;27790;50.840;4.386;2022-09-09T16:59:11;20.30;91.60
39675;DHT22;27790;50.840;4.386;2022-09-09T17:01:39;20.40;92.00
39675;DHT22;27790;50.840;4.386;2022-09-09T17:04:08;20.50;91.80
39675;DHT22;27790;50.840;4.386;2022-09-09T17:06:35;20.60;91.90
39675;DHT22;27790;50.840;4.386;2022-09-09T17:09:05;20.60;91.70
39675;DHT22;27790;50.840;4.386;2022-09-09T17:11:31;20.60;91.60
39675;DHT22;27790;50.840;4.386;2022-09-09T17:13:57;20.50;91.70
39675;DHT22;27790;50.840;4.386;2022-09-09T17:16:25;20.60;91.80
39675;DHT22;27790;50.840;4.386;2022-09-09T17:18:53;20.50;91.20
39675;DHT22;27790;50.840;4.386;2022-09-09T17:21:22;20.40;91.90
39675;DHT22;27790;50.840;4.386;2022-09-09T17:23:49;20.30;91.50
39675;DHT22;27790;50.840;4.386;2022-09-09T17:26:17;20.20;91.50
39675;DHT22;27790;50.840;4.386;2022-09-09T17:28:44;20.10;91.80
39675;DHT22;27790;50.840;4.386;2022-09-09T17:31:11;20.00;91.90
39675;DHT22;27790;50.840;4.386;2022-09-09T17:33:40;19.90;92.00
39675;DHT22;27790;50.840;4.386;2022-09-09T17:36:16;19.80;91.90
39675;DHT22;27790;50.840;4.386;2022-09-09T17:38:42;19.70;91.70
39675;DHT22;27790;50.840;4.386;2022-09-09T17:41:23;19.60;91.80
39675;DHT22;27790;50.840;4.386;2022-09-09T17:43:49;19.50;91.50
39675;DHT22;27790;50.840;4.386;2022-09-09T17:46:16;19.30;91.40
39675;DHT22;27790;50.840;4.386;2022-09-09T17:48:44;19.30;91.60
39675;DHT22;27790;50.840;4.386;2022-09-09T17:51:15;19.30;91.50
39675;DHT22;27790;50.840;4.386;2022-09-09T17:53:48;19.30;91.50
39675;DHT22;27790;50.840;4.386;2022-09-09T17:56:16;19.20;91.20
39675;DHT22;27790;50.840;4.386;2022-09-09T17:58:42;19.20;91.60
39675;DHT22;27790;50.840;4.386;2022-09-09T18:01:16;19.10;91.20
39675;DHT22;27790;50.840;4.386;2022-09-09T18:03:44;19.10;91.30
39675;DHT22;27790;50.840;4.386;2022-09-09T18:06:14;19.00;90.90
39675;DHT22;27790;50.840;4.386;2022-09-09T18:08:46;19.00;91.00
39675;DHT22;27790;50.840;4.386;2022-09-09T18:11:11;18.90;91.40